createdAt,value
2023-05-14T00:01:15.490Z,9.78
2023-05-14T00:03:45.702Z,9.73
2023-05-14T00:06:15.447Z,9.67
2023-05-14T00:08:45.522Z,9.64
2023-05-14T00:11:15.200Z,9.59
2023-05-14T00:13:45.478Z,9.57
2023-05-14T00:16:16.634Z,9.64
2023-05-14T00:18:46.864Z,9.60
2023-05-14T00:21:17.466Z,9.57
2023-05-14T00:23:47.598Z,9.61
2023-05-14T00:26:17.589Z,9.47
2023-05-14T00:28:49.383Z,9.42
2023-05-14T00:31:20.592Z,9.40
2023-05-14T00:33:51.390Z,9.36
2023-05-14T00:36:21.173Z,9.26
2023-05-14T00:38:51.649Z,9.09
2023-05-14T00:41:21.266Z,9.27
2023-05-14T00:43:51.387Z,9.26
2023-05-14T00:46:22.870Z,9.15
2023-05-14T00:48:54.000Z,9.13
2023-05-14T00:51:23.801Z,9.16
2023-05-14T00:53:54.062Z,9.06
2023-05-14T00:56:23.802Z,9.02
2023-05-14T00:58:53.860Z,9.06
2023-05-14T01:01:24.924Z,8.96
2023-05-14T01:03:58.140Z,8.88
2023-05-14T01:06:30.442Z,8.87
2023-05-14T01:09:03.896Z,8.82
2023-05-14T01:11:35.410Z,8.80
2023-05-14T01:14:09.807Z,8.73
2023-05-14T01:16:42.018Z,8.62
2023-05-14T01:19:18.839Z,8.66
2023-05-14T01:21:49.997Z,8.62
2023-05-14T01:24:20.601Z,8.56
2023-05-14T01:26:51.460Z,8.56
2023-05-14T01:29:23.599Z,8.57
2023-05-14T01:31:55.869Z,8.62
2023-05-14T01:34:26.199Z,8.68
2023-05-14T01:37:52.469Z,8.60
2023-05-14T01:40:24.638Z,8.34
2023-05-14T01:42:54.809Z,8.54
2023-05-14T01:45:25.352Z,8.54
2023-05-14T01:47:55.245Z,8.47
2023-05-14T01:50:25.536Z,8.55
2023-05-14T01:52:57.750Z,8.50
2023-05-14T01:55:27.796Z,8.40
2023-05-14T01:57:57.535Z,8.36
2023-05-14T02:00:27.660Z,8.32
2023-05-14T02:02:57.295Z,8.27
2023-05-14T02:05:27.501Z,8.27
2023-05-14T02:07:58.777Z,8.32
2023-05-14T02:10:28.739Z,8.26
2023-05-14T02:12:58.552Z,8.18
2023-05-14T02:15:28.668Z,8.19
2023-05-14T02:17:58.446Z,8.11
2023-05-14T02:20:28.750Z,8.10
2023-05-14T02:23:00.121Z,8.04
2023-05-14T02:25:30.187Z,7.99
2023-05-14T02:28:00.097Z,7.95
2023-05-14T02:30:31.733Z,7.96
2023-05-14T02:33:01.646Z,7.96
2023-05-14T02:35:31.867Z,7.93
2023-05-14T02:38:03.590Z,7.97
2023-05-14T02:40:33.760Z,8.03
2023-05-14T02:43:03.724Z,8.03
2023-05-14T02:45:33.831Z,7.97
2023-05-14T02:48:03.665Z,8.00
2023-05-14T02:50:34.195Z,7.97
2023-05-14T02:53:05.535Z,7.92
2023-05-14T02:55:35.990Z,7.87
2023-05-14T02:58:05.944Z,7.83
2023-05-14T03:00:36.058Z,7.84
2023-05-14T03:03:06.349Z,7.87
2023-05-14T03:05:37.094Z,7.83
2023-05-14T03:08:08.321Z,7.85
2023-05-14T03:10:38.470Z,7.87
2023-05-14T03:13:08.273Z,7.83
2023-05-14T03:15:38.301Z,7.81
2023-05-14T03:18:08.548Z,7.81
2023-05-14T03:20:38.792Z,7.78
2023-05-14T03:23:10.270Z,7.86
2023-05-14T03:25:40.292Z,7.90
2023-05-14T03:28:10.075Z,7.91
2023-05-14T03:30:40.351Z,8.05
2023-05-14T03:33:10.311Z,8.14
2023-05-14T03:35:40.691Z,8.15
2023-05-14T03:38:11.783Z,8.21
2023-05-14T03:40:41.912Z,8.25
2023-05-14T03:43:12.862Z,8.37
2023-05-14T03:45:43.264Z,8.33
2023-05-14T03:48:13.019Z,8.33
2023-05-14T03:50:43.460Z,8.32
2023-05-14T03:53:14.662Z,8.36
2023-05-14T03:55:45.721Z,8.35
2023-05-14T03:58:15.368Z,8.47
2023-05-14T04:00:45.411Z,8.56
2023-05-14T04:03:15.403Z,8.64
2023-05-14T04:05:45.558Z,8.84
2023-05-14T04:08:16.839Z,9.07
2023-05-14T04:10:46.870Z,9.34
2023-05-14T04:13:16.622Z,9.49
2023-05-14T04:15:47.262Z,9.66
2023-05-14T04:18:17.612Z,9.99
2023-05-14T04:20:47.673Z,10.14
2023-05-14T04:23:18.844Z,10.19
2023-05-14T04:25:48.930Z,10.39
2023-05-14T04:28:18.668Z,10.58
2023-05-14T04:30:49.851Z,10.76
2023-05-14T04:33:19.741Z,10.89
2023-05-14T04:35:50.109Z,11.04
2023-05-14T04:38:21.516Z,10.80
2023-05-14T04:40:51.673Z,11.13
2023-05-14T04:43:21.350Z,11.17
2023-05-14T04:45:52.844Z,11.70
2023-05-14T04:48:22.740Z,11.76
2023-05-14T04:50:53.855Z,11.52
2023-05-14T04:53:25.236Z,11.45
2023-05-14T04:55:55.676Z,11.55
2023-05-14T04:58:25.415Z,11.68
2023-05-14T05:00:55.470Z,11.55
2023-05-14T05:03:25.601Z,11.85
2023-05-14T05:05:55.831Z,12.19
2023-05-14T05:08:28.317Z,12.51
2023-05-14T05:10:58.444Z,12.49
2023-05-14T05:13:28.292Z,12.69
2023-05-14T05:15:58.415Z,12.96
2023-05-14T05:18:28.343Z,13.09
2023-05-14T05:20:58.657Z,13.17
2023-05-14T05:23:29.978Z,13.32
2023-05-14T05:26:00.131Z,13.56
2023-05-14T05:28:33.866Z,14.01
2023-05-14T05:31:06.499Z,14.67
2023-05-14T05:33:37.989Z,15.26
2023-05-14T05:36:08.487Z,15.61
2023-05-14T05:38:42.665Z,15.18
2023-05-14T05:41:13.046Z,15.31
2023-05-14T05:43:42.829Z,15.67
2023-05-14T05:46:13.504Z,15.83
2023-05-14T05:48:43.308Z,16.05
2023-05-14T05:51:13.465Z,15.80
2023-05-14T05:53:44.671Z,15.90
2023-05-14T05:56:14.875Z,15.84
2023-05-14T05:58:44.468Z,15.93
2023-05-14T06:01:14.726Z,16.15
2023-05-14T06:03:46.915Z,16.54
2023-05-14T06:06:18.523Z,16.77
2023-05-14T06:08:49.887Z,16.69
2023-05-14T06:11:20.099Z,17.17
2023-05-14T06:13:49.886Z,17.77
2023-05-14T06:16:20.140Z,18.02
2023-05-14T06:18:50.198Z,18.17
2023-05-14T06:21:20.487Z,18.00
2023-05-14T06:23:51.847Z,17.89
2023-05-14T06:26:22.594Z,18.12
2023-05-14T06:28:52.284Z,18.45
2023-05-14T06:31:22.359Z,18.50
2023-05-14T06:33:52.356Z,18.23
2023-05-14T06:36:22.476Z,18.13
2023-05-14T06:38:54.154Z,18.80
2023-05-14T06:41:24.406Z,18.54
2023-05-14T06:43:54.252Z,18.42
2023-05-14T06:46:24.549Z,18.47
2023-05-14T06:48:54.819Z,18.63
2023-05-14T06:51:25.873Z,18.59
2023-05-14T06:53:57.970Z,19.06
2023-05-14T06:56:28.176Z,19.23
2023-05-14T06:58:58.015Z,19.14
2023-05-14T07:01:28.352Z,19.62
2023-05-14T07:03:58.344Z,20.02
2023-05-14T07:06:28.533Z,20.23
2023-05-14T07:08:59.965Z,20.29
2023-05-14T07:11:30.298Z,20.14
2023-05-14T07:14:00.150Z,20.13
2023-05-14T07:16:30.387Z,20.17
2023-05-14T07:19:00.204Z,20.32
2023-05-14T07:21:30.913Z,20.34
2023-05-14T07:24:02.316Z,20.55
2023-05-14T07:26:32.465Z,20.06
2023-05-14T07:29:02.140Z,20.52
2023-05-14T07:31:32.632Z,20.63
2023-05-14T07:34:02.606Z,20.64
2023-05-14T07:36:32.803Z,20.90
2023-05-14T07:39:04.029Z,21.28
2023-05-14T07:41:34.184Z,21.54
2023-05-14T07:44:04.124Z,21.56
2023-05-14T07:46:34.542Z,21.33
2023-05-14T07:49:04.289Z,21.01
2023-05-14T07:51:35.054Z,21.79
2023-05-14T07:54:06.685Z,21.70
2023-05-14T07:56:38.268Z,21.80
2023-05-14T07:59:08.747Z,21.68
2023-05-14T08:01:39.519Z,21.72
2023-05-14T08:04:11.960Z,21.96
2023-05-14T08:06:42.938Z,21.78
2023-05-14T08:09:14.675Z,21.32
2023-05-14T08:11:44.625Z,21.36
2023-05-14T08:14:14.466Z,21.11
2023-05-14T08:16:44.508Z,21.38
2023-05-14T08:19:15.005Z,21.20
2023-05-14T08:21:45.293Z,21.72
2023-05-14T08:24:16.512Z,22.12
2023-05-14T08:26:46.896Z,21.60
2023-05-14T08:29:16.854Z,21.72
2023-05-14T08:31:47.089Z,21.36
2023-05-14T08:34:16.881Z,21.34
2023-05-14T08:36:46.978Z,21.58
2023-05-14T08:39:18.265Z,22.21
2023-05-14T08:41:48.727Z,22.26
2023-05-14T08:44:20.407Z,22.44
2023-05-14T08:46:51.471Z,22.77
2023-05-14T08:49:24.657Z,22.58
2023-05-14T08:51:54.752Z,22.42
2023-05-14T08:54:26.737Z,22.77
2023-05-14T08:56:57.157Z,22.64
2023-05-14T08:59:27.084Z,22.55
2023-05-14T09:01:58.075Z,22.52
2023-05-14T09:04:28.072Z,22.88
2023-05-14T09:06:58.236Z,22.82
2023-05-14T09:09:29.985Z,22.74
2023-05-14T09:12:00.182Z,23.00
2023-05-14T09:14:29.937Z,23.37
2023-05-14T09:17:00.176Z,23.26
2023-05-14T09:19:30.235Z,22.87
2023-05-14T09:22:00.659Z,22.90
2023-05-14T09:24:31.904Z,23.24
2023-05-14T09:27:02.176Z,23.48
2023-05-14T09:29:32.405Z,23.23
2023-05-14T09:32:05.893Z,23.15
2023-05-14T09:34:38.164Z,23.21
2023-05-14T09:37:09.283Z,23.60
2023-05-14T09:39:40.850Z,23.77
2023-05-14T09:42:11.138Z,23.80
2023-05-14T09:44:40.879Z,23.93
2023-05-14T09:47:10.945Z,24.39
2023-05-14T09:49:41.451Z,24.26
2023-05-14T09:52:13.505Z,23.77
2023-05-14T09:54:44.997Z,23.81
2023-05-14T09:57:15.397Z,24.12
2023-05-14T09:59:45.167Z,24.15
2023-05-14T10:02:18.594Z,23.71
2023-05-14T10:04:48.715Z,23.41
2023-05-14T10:07:20.976Z,23.21
2023-05-14T10:09:57.597Z,23.40
2023-05-14T10:12:30.695Z,23.88
2023-05-14T10:15:03.187Z,24.36
2023-05-14T10:17:33.972Z,24.31
2023-05-14T10:20:04.652Z,24.47
2023-05-14T10:22:36.401Z,24.26
2023-05-14T10:25:08.770Z,24.39
2023-05-14T10:27:39.058Z,24.04
2023-05-14T10:30:13.335Z,24.00
2023-05-14T10:32:44.532Z,24.22
2023-05-14T10:35:18.120Z,24.69
2023-05-14T10:37:48.272Z,24.47
2023-05-14T10:40:20.176Z,24.07
2023-05-14T10:42:50.442Z,24.00
2023-05-14T10:45:20.404Z,24.66
2023-05-14T10:47:50.709Z,24.46
2023-05-14T10:50:20.532Z,24.49
2023-05-14T10:52:50.847Z,24.64
2023-05-14T10:55:23.071Z,24.78
2023-05-14T10:57:54.092Z,23.97
2023-05-14T11:00:28.048Z,23.57
2023-05-14T11:02:58.760Z,23.27
2023-05-14T11:05:28.716Z,22.93
2023-05-14T11:07:59.720Z,22.43
2023-05-14T11:10:31.156Z,22.38
2023-05-14T11:13:01.402Z,22.33
2023-05-14T11:15:31.196Z,21.94
2023-05-14T11:18:01.272Z,22.42
2023-05-14T11:20:33.061Z,22.68
2023-05-14T11:23:03.921Z,22.52
2023-05-14T11:25:35.100Z,22.43
2023-05-14T11:28:05.399Z,22.57
2023-05-14T11:30:35.422Z,22.55
2023-05-14T11:33:05.723Z,22.59
2023-05-14T11:35:37.652Z,22.37
2023-05-14T11:38:17.549Z,22.67
2023-05-14T11:40:55.486Z,22.61
2023-05-14T11:43:26.476Z,22.51
2023-05-14T11:45:56.980Z,22.86
2023-05-14T11:48:27.095Z,22.93
2023-05-14T11:50:56.776Z,23.11
2023-05-14T11:53:27.621Z,23.00
2023-05-14T11:55:58.901Z,22.66
2023-05-14T11:58:28.954Z,22.44
2023-05-14T12:00:58.667Z,22.47
2023-05-14T12:03:30.334Z,22.88
2023-05-14T12:06:01.111Z,22.56
2023-05-14T12:08:32.555Z,22.61
2023-05-14T12:11:03.926Z,22.65
2023-05-14T12:13:34.639Z,22.55
2023-05-14T12:16:04.396Z,21.57
2023-05-14T12:18:35.216Z,21.78
2023-05-14T12:21:05.444Z,21.82
2023-05-14T12:23:35.964Z,22.38
2023-05-14T12:26:08.421Z,21.88
2023-05-14T12:28:43.700Z,22.39
2023-05-14T12:31:13.572Z,23.02
2023-05-14T12:33:43.587Z,23.32
2023-05-14T12:36:21.251Z,23.05
2023-05-14T12:38:52.904Z,22.29
2023-05-14T12:41:24.159Z,21.99
2023-05-14T12:43:54.402Z,21.76
2023-05-14T12:46:24.572Z,21.35
2023-05-14T12:48:54.750Z,21.17
2023-05-14T12:51:24.589Z,20.99
2023-05-14T12:53:54.715Z,20.84
2023-05-14T12:56:28.715Z,20.80
2023-05-14T12:58:58.935Z,20.82
2023-05-14T13:01:31.564Z,21.23
2023-05-14T13:04:02.599Z,21.59
2023-05-14T13:06:33.140Z,22.18
2023-05-14T13:09:04.739Z,22.44
2023-05-14T13:11:37.262Z,22.17
2023-05-14T13:14:08.096Z,21.76
2023-05-14T13:16:38.167Z,21.39
2023-05-14T13:19:08.653Z,21.34
2023-05-14T13:21:43.547Z,21.24
2023-05-14T13:24:14.349Z,20.83
2023-05-14T13:26:46.034Z,20.44
2023-05-14T13:29:17.900Z,20.55
2023-05-14T13:31:48.390Z,20.76
2023-05-14T13:34:18.615Z,20.82
2023-05-14T13:36:50.106Z,21.44
2023-05-14T13:39:23.042Z,21.59
2023-05-14T13:41:56.156Z,22.06
2023-05-14T13:44:26.437Z,21.97
2023-05-14T13:47:00.316Z,21.72
2023-05-14T13:49:31.364Z,21.58
2023-05-14T13:52:01.086Z,21.22
2023-05-14T13:54:31.195Z,21.03
2023-05-14T13:57:02.633Z,21.25
2023-05-14T13:59:32.969Z,21.07
2023-05-14T14:02:03.200Z,20.98
2023-05-14T14:04:33.457Z,20.74
2023-05-14T14:07:04.733Z,20.80
2023-05-14T14:09:36.298Z,20.88
2023-05-14T14:12:08.436Z,20.71
2023-05-14T14:14:38.776Z,20.75
2023-05-14T14:17:09.331Z,20.57
2023-05-14T14:19:39.395Z,20.52
2023-05-14T14:22:09.124Z,20.47
2023-05-14T14:24:39.182Z,20.39
2023-05-14T14:27:10.588Z,20.33
2023-05-14T14:29:40.708Z,20.34
2023-05-14T14:32:10.589Z,20.44
2023-05-14T14:34:40.591Z,20.40
2023-05-14T14:37:10.321Z,20.57
2023-05-14T14:39:40.681Z,20.59
2023-05-14T14:42:12.000Z,20.71
2023-05-14T14:44:42.085Z,20.68
2023-05-14T14:47:11.989Z,20.70
2023-05-14T14:49:42.242Z,20.60
2023-05-14T14:52:12.104Z,20.61
2023-05-14T14:54:42.309Z,20.42
2023-05-14T14:57:13.642Z,20.49
2023-05-14T14:59:43.698Z,20.56
2023-05-14T15:02:13.497Z,20.64
2023-05-14T15:04:44.037Z,20.68
2023-05-14T15:07:16.334Z,20.66
2023-05-14T15:09:46.965Z,20.71
2023-05-14T15:12:18.614Z,20.71
2023-05-14T15:14:49.155Z,20.62
2023-05-14T15:17:18.814Z,20.49
2023-05-14T15:19:48.813Z,20.33
2023-05-14T15:22:18.574Z,20.21
2023-05-14T15:24:48.920Z,20.05
2023-05-14T15:27:20.254Z,19.84
2023-05-14T15:29:50.418Z,19.94
2023-05-14T15:32:20.317Z,19.88
2023-05-14T15:34:50.371Z,19.98
2023-05-14T15:37:20.213Z,20.04
2023-05-14T15:39:50.378Z,19.93
2023-05-14T15:42:21.908Z,19.92
2023-05-14T15:44:52.015Z,19.85
2023-05-14T15:47:21.771Z,19.87
2023-05-14T15:49:51.828Z,19.97
2023-05-14T15:52:21.651Z,19.98
2023-05-14T15:54:51.879Z,19.88
2023-05-14T15:57:23.346Z,19.96
2023-05-14T15:59:53.358Z,19.97
2023-05-14T16:02:22.944Z,19.95
2023-05-14T16:04:53.066Z,19.94
2023-05-14T16:07:22.738Z,19.93
2023-05-14T16:09:53.002Z,19.99
2023-05-14T16:12:24.319Z,20.01
2023-05-14T16:14:54.911Z,19.96
2023-05-14T16:17:25.585Z,20.01
2023-05-14T16:19:56.431Z,19.89
2023-05-14T16:22:27.198Z,20.00
2023-05-14T16:24:58.100Z,20.03
2023-05-14T16:27:29.528Z,19.96
2023-05-14T16:29:59.725Z,20.00
2023-05-14T16:32:29.742Z,19.91
2023-05-14T16:35:02.282Z,19.89
2023-05-14T16:37:32.899Z,19.93
2023-05-14T16:40:03.053Z,19.82
2023-05-14T16:42:34.572Z,19.62
2023-05-14T16:45:05.048Z,19.77
2023-05-14T16:47:36.396Z,19.60
2023-05-14T16:50:08.416Z,19.65
2023-05-14T16:52:38.162Z,19.61
2023-05-14T16:55:08.872Z,19.61
2023-05-14T16:57:40.174Z,19.50
2023-05-14T17:00:11.389Z,19.41
2023-05-14T17:02:41.160Z,19.33
2023-05-14T17:05:11.478Z,19.22
2023-05-14T17:07:41.537Z,19.18
2023-05-14T17:10:11.987Z,19.09
2023-05-14T17:12:43.463Z,19.11
2023-05-14T17:15:13.327Z,18.91
2023-05-14T17:17:43.427Z,18.99
2023-05-14T17:20:15.917Z,18.99
2023-05-14T17:22:46.708Z,18.89
2023-05-14T17:25:17.005Z,18.80
2023-05-14T17:27:48.136Z,18.79
2023-05-14T17:30:20.579Z,18.78
2023-05-14T17:32:51.634Z,18.63
2023-05-14T17:35:23.109Z,18.55
2023-05-14T17:37:53.012Z,18.58
2023-05-14T17:40:24.076Z,18.59
2023-05-14T17:42:55.293Z,18.48
2023-05-14T17:45:25.697Z,18.48
2023-05-14T17:47:55.787Z,18.44
2023-05-14T17:50:26.029Z,18.41
2023-05-14T17:52:56.793Z,18.25
2023-05-14T17:55:26.982Z,18.24
2023-05-14T17:57:58.362Z,18.11
2023-05-14T18:00:28.699Z,18.18
2023-05-14T18:02:58.627Z,18.00
2023-05-14T18:05:30.090Z,18.02
2023-05-14T18:07:59.882Z,17.94
2023-05-14T18:10:30.420Z,17.96
2023-05-14T18:13:02.754Z,17.84
2023-05-14T18:15:34.267Z,17.75
2023-05-14T18:18:05.517Z,17.70
2023-05-14T18:20:39.837Z,17.68
2023-05-14T18:23:15.547Z,17.56
2023-05-14T18:25:46.174Z,17.46
2023-05-14T18:28:19.257Z,17.32
2023-05-14T18:30:51.144Z,17.20
2023-05-14T18:33:23.754Z,17.05
2023-05-14T18:35:54.477Z,17.08
2023-05-14T18:38:24.324Z,16.97
2023-05-14T18:40:54.478Z,16.86
2023-05-14T18:43:27.580Z,16.78
2023-05-14T18:46:00.361Z,16.68
2023-05-14T18:48:30.413Z,16.33
2023-05-14T18:51:01.484Z,16.41
2023-05-14T18:53:31.827Z,16.32
2023-05-14T18:56:02.106Z,16.14
2023-05-14T18:58:33.518Z,16.10
2023-05-14T19:01:03.808Z,15.84
2023-05-14T19:03:34.413Z,15.73
2023-05-14T19:06:06.047Z,15.64
2023-05-14T19:08:37.026Z,15.49
2023-05-14T19:11:07.846Z,15.28
2023-05-14T19:13:39.928Z,15.13
2023-05-14T19:16:11.349Z,15.07
2023-05-14T19:18:41.605Z,15.12
2023-05-14T19:21:13.453Z,15.07
2023-05-14T19:23:43.548Z,15.09
2023-05-14T19:26:14.176Z,15.00
2023-05-14T19:28:46.289Z,14.76
2023-05-14T19:31:17.396Z,14.58
2023-05-14T19:33:48.618Z,14.33
2023-05-14T19:36:20.275Z,14.44
2023-05-14T19:38:50.218Z,14.51
2023-05-14T19:41:21.840Z,14.46
2023-05-14T19:43:53.866Z,14.44
2023-05-14T19:46:25.063Z,14.46
2023-05-14T19:48:56.024Z,14.41
2023-05-14T19:51:27.630Z,14.37
2023-05-14T19:53:58.923Z,14.27
2023-05-14T19:56:29.449Z,14.11
2023-05-14T19:59:01.585Z,13.91
2023-05-14T20:01:33.406Z,13.88
2023-05-14T20:04:03.249Z,13.89
2023-05-14T20:06:34.841Z,13.99
2023-05-14T20:09:06.241Z,13.95
2023-05-14T20:11:36.347Z,13.95
2023-05-14T20:14:07.872Z,13.78
2023-05-14T20:16:38.918Z,13.70
2023-05-14T20:19:09.241Z,13.69
2023-05-14T20:21:39.651Z,13.65
2023-05-14T20:24:10.458Z,13.70
2023-05-14T20:26:41.712Z,13.75
2023-05-14T20:29:14.774Z,13.65
2023-05-14T20:31:46.059Z,13.62
2023-05-14T20:34:17.470Z,13.62
2023-05-14T20:36:47.593Z,13.71
2023-05-14T20:39:17.309Z,13.68
2023-05-14T20:41:47.773Z,13.42
2023-05-14T20:44:20.610Z,13.32
2023-05-14T20:46:51.972Z,13.34
2023-05-14T20:49:21.962Z,13.20
2023-05-14T20:51:53.264Z,13.06
2023-05-14T20:54:22.928Z,13.00
2023-05-14T20:56:53.064Z,12.91
2023-05-14T20:59:24.452Z,12.79
2023-05-14T21:01:54.601Z,12.72
2023-05-14T21:04:24.582Z,12.68
2023-05-14T21:06:54.851Z,12.72
2023-05-14T21:09:24.909Z,12.66
2023-05-14T21:11:55.105Z,12.65
2023-05-14T21:14:26.421Z,12.64
2023-05-14T21:16:56.567Z,12.62
2023-05-14T21:19:26.245Z,12.43
2023-05-14T21:21:56.284Z,12.42
2023-05-14T21:24:26.055Z,12.39
2023-05-14T21:26:56.035Z,12.41
2023-05-14T21:29:27.141Z,12.43
2023-05-14T21:31:57.600Z,12.25
2023-05-14T21:34:27.422Z,12.13
2023-05-14T21:36:59.351Z,12.09
2023-05-14T21:39:28.983Z,12.02
2023-05-14T21:41:58.992Z,12.05
2023-05-14T21:44:30.193Z,11.92
2023-05-14T21:47:00.536Z,11.83
2023-05-14T21:49:30.154Z,11.74
2023-05-14T21:52:00.610Z,11.70
2023-05-14T21:54:30.212Z,11.60
2023-05-14T21:57:00.407Z,11.54
2023-05-14T21:59:31.617Z,11.54
2023-05-14T22:04:34.380Z,11.44
2023-05-14T22:07:04.737Z,11.38
2023-05-14T22:09:34.531Z,11.35
2023-05-14T22:12:04.616Z,11.31
2023-05-14T22:14:35.902Z,11.23
2023-05-14T22:17:06.493Z,11.19
2023-05-14T22:19:36.288Z,11.23
2023-05-14T22:22:06.551Z,11.22
2023-05-14T22:24:36.229Z,11.33
2023-05-14T22:27:06.708Z,11.26
2023-05-14T22:29:38.478Z,11.23
2023-05-14T22:32:10.452Z,11.20
2023-05-14T22:34:40.169Z,11.22
2023-05-14T22:37:10.270Z,11.09
2023-05-14T22:39:40.025Z,11.00
2023-05-14T22:42:09.911Z,10.94
2023-05-14T22:44:41.228Z,10.89
2023-05-14T22:47:11.150Z,10.85
2023-05-14T22:49:40.895Z,10.88
2023-05-14T22:52:10.920Z,10.95
2023-05-14T22:54:40.558Z,10.83
2023-05-14T22:57:10.709Z,10.78
2023-05-14T22:59:42.185Z,10.78
2023-05-14T23:02:12.334Z,10.87
2023-05-14T23:04:42.152Z,10.90
2023-05-14T23:07:12.185Z,10.78
2023-05-14T23:09:41.948Z,10.76
2023-05-14T23:12:12.389Z,10.71
2023-05-14T23:14:43.453Z,10.70
2023-05-14T23:17:13.614Z,10.65
2023-05-14T23:19:43.280Z,10.56
2023-05-14T23:22:13.439Z,10.49
2023-05-14T23:24:43.082Z,10.48
2023-05-14T23:27:13.193Z,10.48
2023-05-14T23:29:44.474Z,10.46
2023-05-14T23:32:14.692Z,10.43
2023-05-14T23:34:44.846Z,10.44
2023-05-14T23:37:15.162Z,10.45
2023-05-14T23:39:44.821Z,10.51
2023-05-14T23:42:14.963Z,10.60
2023-05-14T23:44:46.161Z,10.66
2023-05-14T23:47:16.347Z,10.65
2023-05-14T23:49:45.933Z,10.57
2023-05-14T23:52:16.152Z,10.47
2023-05-14T23:54:45.796Z,10.39
2023-05-14T23:57:16.216Z,10.41
2023-05-14T23:59:47.661Z,10.40
